Athens, Georgia
Current Conditions -  °F | °C
As of 6:51 PM on Friday 19 Dec 2014 (Local Time) from KAHN Reporting Station
Clear Clear  
Wind Chill: 50°   Ceiling: Unl
Heat Index: 50°   Visibility: 10mi
Dew Point: 38°   Wind: 0mph
Humidity: 63%   Direction: NA
Pressure: 30.11"   Gusts: NA
Location:  33.96°N, 83.37°W
Report Text: KAHN 192351Z 00000KT 10SM CLR 10/03 A3011 RMK AO2 SLP200 T01000033 10150 20100 53008
Loading
Personal Weather Stations






























Interactive Weather Map New forecast layout! Learn more

10-Day Weather Forecast

Advertisements
Track Severe Weather on mobile